createdAt,value
2023-02-28T00:00:56.865Z,11.40
2023-02-28T00:01:56.877Z,12.60
2023-02-28T00:02:56.880Z,14.00
2023-02-28T00:03:56.834Z,10.40
2023-02-28T00:04:56.826Z,13.90
2023-02-28T00:05:56.819Z,12.50
2023-02-28T00:06:56.803Z,13.70
2023-02-28T00:07:56.785Z,13.30
2023-02-28T00:08:56.785Z,11.40
2023-02-28T00:09:56.772Z,14.80
2023-02-28T00:10:56.752Z,11.70
2023-02-28T00:11:56.766Z,13.70
2023-02-28T00:12:56.751Z,12.20
2023-02-28T00:13:56.751Z,14.40
2023-02-28T00:14:56.712Z,14.80
2023-02-28T00:15:56.699Z,14.70
2023-02-28T00:16:56.712Z,11.50
2023-02-28T00:17:56.694Z,14.90
2023-02-28T00:18:56.667Z,12.90
2023-02-28T00:19:56.660Z,13.20
2023-02-28T00:20:56.642Z,12.10
2023-02-28T00:21:56.636Z,13.00
2023-02-28T00:22:56.620Z,14.60
2023-02-28T00:23:56.611Z,12.80
2023-02-28T00:24:56.602Z,12.50
2023-02-28T00:25:56.587Z,15.10
2023-02-28T00:26:56.578Z,13.10
2023-02-28T00:27:56.592Z,14.30
2023-02-28T00:28:56.586Z,14.50
2023-02-28T00:29:56.555Z,12.50
2023-02-28T00:30:56.607Z,16.40
2023-02-28T00:31:56.550Z,13.10
2023-02-28T00:32:56.506Z,14.60
2023-02-28T00:33:56.506Z,14.60
2023-02-28T00:34:56.480Z,12.20
2023-02-28T00:35:56.487Z,15.20
2023-02-28T00:36:56.458Z,12.50
2023-02-28T00:37:56.452Z,13.60
2023-02-28T00:38:56.461Z,11.80
2023-02-28T00:39:56.427Z,13.80
2023-02-28T00:40:56.414Z,13.40
2023-02-28T00:41:56.409Z,11.90
2023-02-28T00:42:56.392Z,12.60
2023-02-28T00:43:56.411Z,14.30
2023-02-28T00:44:56.369Z,14.90
2023-02-28T00:45:56.417Z,15.70
2023-02-28T00:46:56.346Z,15.10
2023-02-28T00:47:56.335Z,14.60
2023-02-28T00:48:56.324Z,12.30
2023-02-28T00:49:56.315Z,13.00
2023-02-28T00:50:56.301Z,13.80
2023-02-28T00:51:56.293Z,16.10
2023-02-28T00:52:56.284Z,11.80
2023-02-28T00:53:56.274Z,15.20
2023-02-28T00:54:56.262Z,14.40
2023-02-28T00:55:56.251Z,14.70
2023-02-28T00:56:56.237Z,15.60
2023-02-28T00:57:56.228Z,14.20
2023-02-28T00:58:56.217Z,13.40
2023-02-28T00:59:56.227Z,12.20
2023-02-28T01:00:56.188Z,13.70
2023-02-28T01:01:56.221Z,12.10
2023-02-28T01:02:56.169Z,14.50
2023-02-28T01:03:56.156Z,15.40
2023-02-28T01:04:56.146Z,14.20
2023-02-28T01:05:56.137Z,15.50
2023-02-28T01:06:56.124Z,14.80
2023-02-28T01:07:56.116Z,11.50
2023-02-28T01:08:56.105Z,12.70
2023-02-28T01:09:56.100Z,13.00
2023-02-28T01:10:56.097Z,13.60
2023-02-28T01:11:56.073Z,12.90
2023-02-28T01:12:56.060Z,14.30
2023-02-28T01:13:56.052Z,13.30
2023-02-28T01:14:56.037Z,14.00
2023-02-28T01:15:56.113Z,12.90
2023-02-28T01:16:56.018Z,11.50
2023-02-28T01:17:56.007Z,13.40
2023-02-28T01:18:55.995Z,13.00
2023-02-28T01:19:55.983Z,13.90
2023-02-28T01:20:55.976Z,13.40
2023-02-28T01:21:55.965Z,12.00
2023-02-28T01:22:55.953Z,12.10
2023-02-28T01:23:55.940Z,13.30
2023-02-28T01:24:55.928Z,13.50
2023-02-28T01:25:55.919Z,15.30
2023-02-28T01:26:55.907Z,12.30
2023-02-28T01:27:55.894Z,12.20
2023-02-28T01:28:55.885Z,14.40
2023-02-28T01:29:55.870Z,12.40
2023-02-28T01:30:55.921Z,14.70
2023-02-28T01:31:55.948Z,12.20
2023-02-28T01:32:55.850Z,11.60
2023-02-28T01:33:55.825Z,14.20
2023-02-28T01:34:55.813Z,12.70
2023-02-28T01:35:55.832Z,14.80
2023-02-28T01:36:55.794Z,13.90
2023-02-28T01:37:55.778Z,13.80
2023-02-28T01:38:55.773Z,13.20
2023-02-28T01:39:55.756Z,13.30
2023-02-28T01:40:55.756Z,12.30
2023-02-28T01:41:55.731Z,12.80
2023-02-28T01:42:55.719Z,15.60
2023-02-28T01:43:55.714Z,14.00
2023-02-28T01:44:55.697Z,12.10
2023-02-28T01:45:55.693Z,12.60
2023-02-28T01:46:55.676Z,13.30
2023-02-28T01:47:55.760Z,11.80
2023-02-28T01:48:55.651Z,13.40
2023-02-28T01:49:55.650Z,12.80
2023-02-28T01:50:55.648Z,15.90
2023-02-28T01:51:55.636Z,12.70
2023-02-28T01:52:55.608Z,13.90
2023-02-28T01:53:55.596Z,13.30
2023-02-28T01:54:55.584Z,11.50
2023-02-28T01:55:55.574Z,12.70
2023-02-28T01:56:55.562Z,11.70
2023-02-28T01:57:55.556Z,13.30
2023-02-28T01:58:55.539Z,11.40
2023-02-28T01:59:55.528Z,15.20
2023-02-28T02:00:55.523Z,14.10
2023-02-28T02:01:55.590Z,13.00
2023-02-28T02:02:55.607Z,13.10
2023-02-28T02:03:55.568Z,14.90
2023-02-28T02:04:55.483Z,12.80
2023-02-28T02:05:55.463Z,13.90
2023-02-28T02:06:55.453Z,13.80
2023-02-28T02:07:55.440Z,12.30
2023-02-28T02:08:55.426Z,12.80
2023-02-28T02:09:55.415Z,12.80
2023-02-28T02:10:55.402Z,13.40
2023-02-28T02:11:55.395Z,11.60
2023-02-28T02:12:55.379Z,12.40
2023-02-28T02:13:55.369Z,13.20
2023-02-28T02:14:55.359Z,11.20
2023-02-28T02:15:55.369Z,12.40
2023-02-28T02:16:55.333Z,13.90
2023-02-28T02:17:55.333Z,15.20
2023-02-28T02:18:55.309Z,12.10
2023-02-28T02:19:55.368Z,11.50
2023-02-28T02:20:55.286Z,15.30
2023-02-28T02:21:55.305Z,12.80
2023-02-28T02:22:55.269Z,17.70
2023-02-28T02:23:55.258Z,12.10
2023-02-28T02:24:55.243Z,12.90
2023-02-28T02:25:55.232Z,13.70
2023-02-28T02:26:55.220Z,13.10
2023-02-28T02:27:55.209Z,11.10
2023-02-28T02:28:55.198Z,13.00
2023-02-28T02:29:55.185Z,12.10
2023-02-28T02:30:55.178Z,15.20
2023-02-28T02:31:55.237Z,11.20
2023-02-28T02:32:55.158Z,15.00
2023-02-28T02:33:55.138Z,11.60
2023-02-28T02:34:55.133Z,12.70
2023-02-28T02:35:55.177Z,11.10
2023-02-28T02:36:55.111Z,10.70
2023-02-28T02:37:55.092Z,13.00
2023-02-28T02:38:55.088Z,12.60
2023-02-28T02:39:55.069Z,12.00
2023-02-28T02:40:55.062Z,14.00
2023-02-28T02:41:55.053Z,12.90
2023-02-28T02:42:55.042Z,13.60
2023-02-28T02:43:55.025Z,14.30
2023-02-28T02:44:55.060Z,13.40
2023-02-28T02:45:55.004Z,12.30
2023-02-28T02:46:55.108Z,13.80
2023-02-28T02:47:54.979Z,15.60
2023-02-28T02:48:54.972Z,14.00
2023-02-28T02:49:54.956Z,13.40
2023-02-28T02:50:54.948Z,15.00
2023-02-28T02:51:54.961Z,12.10
2023-02-28T02:52:54.925Z,10.60
2023-02-28T02:53:54.912Z,12.60
2023-02-28T02:54:56.624Z,14.20
2023-02-28T02:55:54.889Z,11.70
2023-02-28T02:56:54.881Z,16.10
2023-02-28T02:57:54.865Z,13.00
2023-02-28T02:58:54.856Z,14.60
2023-02-28T02:59:54.845Z,14.10
2023-02-28T03:00:54.873Z,14.10
2023-02-28T03:01:54.821Z,13.00
2023-02-28T03:02:54.811Z,14.70
2023-02-28T03:03:54.887Z,14.80
2023-02-28T03:04:54.790Z,13.40
2023-02-28T03:05:54.775Z,11.50
2023-02-28T03:06:54.765Z,13.50
2023-02-28T03:07:54.778Z,14.30
2023-02-28T03:08:54.743Z,12.30
2023-02-28T03:09:54.752Z,14.60
2023-02-28T03:10:54.720Z,13.20
2023-02-28T03:11:54.708Z,13.60
2023-02-28T03:12:54.698Z,13.20
2023-02-28T03:13:54.686Z,15.50
2023-02-28T03:14:54.677Z,14.80
2023-02-28T03:15:54.791Z,13.10
2023-02-28T03:16:54.658Z,12.80
2023-02-28T03:17:54.644Z,12.60
2023-02-28T03:18:54.636Z,12.40
2023-02-28T03:19:54.627Z,13.00
2023-02-28T03:20:54.630Z,12.80
2023-02-28T03:21:54.603Z,15.10
2023-02-28T03:22:54.598Z,15.40
2023-02-28T03:23:54.606Z,14.30
2023-02-28T03:24:54.574Z,11.80
2023-02-28T03:25:54.563Z,11.80
2023-02-28T03:26:54.552Z,12.80
2023-02-28T03:27:54.538Z,16.20
2023-02-28T03:28:54.535Z,13.00
2023-02-28T03:29:54.519Z,14.60
2023-02-28T03:30:54.509Z,13.40
2023-02-28T03:31:54.586Z,14.10
2023-02-28T03:32:54.488Z,14.20
2023-02-28T03:33:54.475Z,13.30
2023-02-28T03:34:54.467Z,14.00
2023-02-28T03:35:54.549Z,13.20
2023-02-28T03:36:54.471Z,13.70
2023-02-28T03:37:54.433Z,13.60
2023-02-28T03:38:54.425Z,13.20
2023-02-28T03:39:54.441Z,12.60
2023-02-28T03:40:54.406Z,12.30
2023-02-28T03:41:54.401Z,13.30
2023-02-28T03:42:54.382Z,15.00
2023-02-28T03:43:54.373Z,12.20
2023-02-28T03:44:54.360Z,11.80
2023-02-28T03:45:54.452Z,15.40
2023-02-28T03:46:54.341Z,15.60
2023-02-28T03:47:54.330Z,13.20
2023-02-28T03:48:54.320Z,12.00
2023-02-28T03:49:54.309Z,15.90
2023-02-28T03:50:54.299Z,14.00
2023-02-28T03:51:54.288Z,14.80
2023-02-28T03:52:54.277Z,12.60
2023-02-28T03:53:54.279Z,14.20
2023-02-28T03:54:54.258Z,14.80
2023-02-28T03:55:54.269Z,14.00
2023-02-28T03:56:54.240Z,12.40
2023-02-28T03:57:54.230Z,14.40
2023-02-28T03:58:54.217Z,15.00
2023-02-28T03:59:54.206Z,13.10
2023-02-28T04:00:54.199Z,15.80
2023-02-28T04:01:54.230Z,11.70
2023-02-28T04:02:54.169Z,12.60
2023-02-28T04:03:54.157Z,11.90
2023-02-28T04:04:54.154Z,13.20
2023-02-28T04:05:54.178Z,17.10
2023-02-28T04:06:54.126Z,14.30
2023-02-28T04:07:54.119Z,14.80
2023-02-28T04:08:54.109Z,16.10
2023-02-28T04:09:54.104Z,11.60
2023-02-28T04:10:54.086Z,13.70
2023-02-28T04:11:54.107Z,14.00
2023-02-28T04:12:54.064Z,15.00
2023-02-28T04:13:54.054Z,14.60
2023-02-28T04:14:54.042Z,14.20
2023-02-28T04:15:54.104Z,14.30
2023-02-28T04:16:54.021Z,13.90
2023-02-28T04:17:54.009Z,13.50
2023-02-28T04:18:54.005Z,12.80
2023-02-28T04:19:53.990Z,12.70
2023-02-28T04:20:53.988Z,13.80
2023-02-28T04:21:53.984Z,13.90
2023-02-28T04:22:53.956Z,13.20
2023-02-28T04:23:53.956Z,13.20
2023-02-28T04:24:53.942Z,14.30
2023-02-28T04:25:53.927Z,17.60
2023-02-28T04:26:53.922Z,13.70
2023-02-28T04:27:53.928Z,16.00
2023-02-28T04:28:53.895Z,12.10
2023-02-28T04:29:53.887Z,11.90
2023-02-28T04:30:53.877Z,12.40
2023-02-28T04:31:53.968Z,14.00
2023-02-28T04:32:53.851Z,13.00
2023-02-28T04:33:53.844Z,12.40
2023-02-28T04:34:53.864Z,13.80
2023-02-28T04:35:53.884Z,13.20
2023-02-28T04:37:10.064Z,13.30
2023-02-28T04:37:54.827Z,13.50
2023-02-28T04:38:53.788Z,13.50
2023-02-28T04:39:53.787Z,14.20
2023-02-28T04:40:53.767Z,16.50
2023-02-28T04:41:53.755Z,13.60
2023-02-28T04:42:53.746Z,15.50
2023-02-28T04:43:53.761Z,14.20
2023-02-28T04:44:53.725Z,12.80
2023-02-28T04:45:53.931Z,13.60
2023-02-28T04:46:53.702Z,13.50
2023-02-28T04:47:53.690Z,11.60
2023-02-28T04:48:53.677Z,13.00
2023-02-28T04:49:53.685Z,13.00
2023-02-28T04:50:53.735Z,13.90
2023-02-28T04:51:53.650Z,11.10
2023-02-28T04:52:53.696Z,12.40
2023-02-28T04:53:53.622Z,16.60
2023-02-28T04:54:53.614Z,12.00
2023-02-28T04:55:53.602Z,12.40
2023-02-28T04:56:53.592Z,12.60
2023-02-28T04:57:53.578Z,12.40
2023-02-28T04:58:53.574Z,13.40
2023-02-28T04:59:53.582Z,11.00
2023-02-28T05:00:53.548Z,10.80
2023-02-28T05:01:53.623Z,13.40
2023-02-28T05:02:53.528Z,11.30
2023-02-28T05:03:53.567Z,11.80
2023-02-28T05:04:53.560Z,12.70
2023-02-28T05:05:53.492Z,12.60
2023-02-28T05:06:53.485Z,13.60
2023-02-28T05:07:53.471Z,13.20
2023-02-28T05:08:53.468Z,11.70
2023-02-28T05:09:53.450Z,11.30
2023-02-28T05:10:53.444Z,12.60
2023-02-28T05:11:53.426Z,13.20
2023-02-28T05:12:53.439Z,14.30
2023-02-28T05:13:53.406Z,15.20
2023-02-28T05:14:53.399Z,11.20
2023-02-28T05:15:53.573Z,14.30
2023-02-28T05:16:53.378Z,11.60
2023-02-28T05:17:53.387Z,12.40
2023-02-28T05:18:53.405Z,11.50
2023-02-28T05:19:54.579Z,11.10
2023-02-28T05:20:53.333Z,12.40
2023-02-28T05:21:53.329Z,11.30
2023-02-28T05:22:53.313Z,10.70
2023-02-28T05:23:53.307Z,12.00
2023-02-28T05:24:53.298Z,11.80
2023-02-28T05:25:53.280Z,11.50
2023-02-28T05:26:53.273Z,13.30
2023-02-28T05:27:53.261Z,13.80
2023-02-28T05:28:53.249Z,10.70
2023-02-28T05:29:53.234Z,11.70
2023-02-28T05:30:53.228Z,11.60
2023-02-28T05:31:53.428Z,12.60
2023-02-28T05:32:53.202Z,11.30
2023-02-28T05:33:53.194Z,11.70
2023-02-28T05:34:53.184Z,9.40
2023-02-28T05:35:53.263Z,10.50
2023-02-28T05:36:53.164Z,12.60
2023-02-28T05:37:53.151Z,9.40
2023-02-28T05:38:53.148Z,11.40
2023-02-28T05:39:53.133Z,12.90
2023-02-28T05:40:53.124Z,12.80
2023-02-28T05:41:53.106Z,13.20
2023-02-28T05:42:53.095Z,10.60
2023-02-28T05:43:53.086Z,11.50
2023-02-28T05:44:53.080Z,11.80
2023-02-28T05:45:53.126Z,12.00
2023-02-28T05:46:53.056Z,10.20
2023-02-28T05:47:53.071Z,13.30
2023-02-28T05:48:53.109Z,11.10
2023-02-28T05:49:53.027Z,12.50
2023-02-28T05:50:53.021Z,9.40
2023-02-28T05:51:53.004Z,14.10
2023-02-28T05:52:53.010Z,9.90
2023-02-28T05:53:52.978Z,11.30
2023-02-28T05:54:52.970Z,11.00
2023-02-28T05:55:52.961Z,12.70
2023-02-28T05:56:52.958Z,10.90
2023-02-28T05:57:52.976Z,9.90
2023-02-28T05:58:52.930Z,12.20
2023-02-28T05:59:53.214Z,10.80
2023-02-28T06:00:52.901Z,9.40
2023-02-28T06:01:52.889Z,11.10
2023-02-28T06:02:52.913Z,12.10
2023-02-28T06:03:52.968Z,11.50
2023-02-28T06:04:52.886Z,12.50
2023-02-28T06:05:52.849Z,11.10
2023-02-28T06:06:52.877Z,11.40
2023-02-28T06:07:52.976Z,13.50
2023-02-28T06:08:52.894Z,10.40
2023-02-28T06:09:52.881Z,11.90
2023-02-28T06:10:52.890Z,13.20
2023-02-28T06:11:52.994Z,13.40
2023-02-28T06:12:52.947Z,10.50
2023-02-28T06:14:52.754Z,12.30
2023-02-28T06:15:52.742Z,11.10
2023-02-28T06:16:52.838Z,12.00
2023-02-28T06:17:52.727Z,10.20
2023-02-28T06:18:52.711Z,17.90
2023-02-28T06:19:52.768Z,11.40
2023-02-28T06:20:52.693Z,12.20
2023-02-28T06:21:52.677Z,10.40
2023-02-28T06:22:52.671Z,12.20
2023-02-28T06:23:52.662Z,13.90
2023-02-28T06:24:52.645Z,11.10
2023-02-28T06:25:52.635Z,12.40
2023-02-28T06:26:58.638Z,12.10
2023-02-28T06:27:52.611Z,14.40
2023-02-28T06:28:52.601Z,12.80
2023-02-28T06:29:52.589Z,14.00
2023-02-28T06:30:52.605Z,12.40
2023-02-28T06:31:52.603Z,14.00
2023-02-28T06:32:52.565Z,16.90
2023-02-28T06:33:52.547Z,17.10
2023-02-28T06:34:52.539Z,16.00
2023-02-28T06:35:52.617Z,14.10
2023-02-28T06:36:52.537Z,13.00
2023-02-28T06:37:52.503Z,11.80
2023-02-28T06:38:52.504Z,12.50
2023-02-28T06:39:52.481Z,13.20
2023-02-28T06:40:52.473Z,14.20
2023-02-28T06:41:55.773Z,12.40
2023-02-28T06:42:52.450Z,11.80
2023-02-28T06:43:52.441Z,16.00
2023-02-28T06:44:52.429Z,11.70
2023-02-28T06:45:52.455Z,11.00
2023-02-28T06:46:52.406Z,12.60
2023-02-28T06:47:52.399Z,13.50
2023-02-28T06:48:52.403Z,13.90
2023-02-28T06:49:52.377Z,15.40
2023-02-28T06:50:52.363Z,10.50
2023-02-28T06:51:52.389Z,14.20
2023-02-28T06:52:52.634Z,13.00
2023-02-28T06:53:52.354Z,13.10
2023-02-28T06:54:52.320Z,13.50
2023-02-28T06:55:52.310Z,12.20
2023-02-28T06:56:52.296Z,12.50
2023-02-28T06:57:52.290Z,13.00
2023-02-28T06:58:52.308Z,12.00
2023-02-28T06:59:52.268Z,12.50
2023-02-28T07:00:52.253Z,13.90
2023-02-28T07:01:52.284Z,14.40
2023-02-28T07:02:52.235Z,15.50
2023-02-28T07:03:52.226Z,12.00
2023-02-28T07:04:52.236Z,14.50
2023-02-28T07:05:52.196Z,15.20
2023-02-28T07:06:52.195Z,10.70
2023-02-28T07:07:52.206Z,12.30
2023-02-28T07:08:52.164Z,16.10
2023-02-28T07:09:52.153Z,14.40
2023-02-28T07:10:52.140Z,13.60
2023-02-28T07:11:52.138Z,12.40
2023-02-28T07:12:52.122Z,12.20
2023-02-28T07:13:52.148Z,19.30
2023-02-28T07:14:52.098Z,15.60
2023-02-28T07:15:52.131Z,13.80
2023-02-28T07:16:52.075Z,14.40
2023-02-28T07:17:52.069Z,12.60
2023-02-28T07:18:52.055Z,12.30
2023-02-28T07:19:52.047Z,13.10
2023-02-28T07:20:52.039Z,16.00
2023-02-28T07:21:52.025Z,11.80
2023-02-28T07:22:52.008Z,12.70
2023-02-28T07:23:52.031Z,13.40
2023-02-28T07:24:51.990Z,12.20
2023-02-28T07:25:51.987Z,17.60
2023-02-28T07:26:52.009Z,10.50
2023-02-28T07:27:51.959Z,11.70
2023-02-28T07:28:51.956Z,14.50
2023-02-28T07:29:51.935Z,13.40
2023-02-28T07:30:52.000Z,12.30
2023-02-28T07:31:51.943Z,13.90
2023-02-28T07:32:51.903Z,9.50
2023-02-28T07:33:51.890Z,13.80
2023-02-28T07:34:51.881Z,10.40
2023-02-28T07:35:51.991Z,15.70
2023-02-28T07:36:51.864Z,11.70
2023-02-28T07:37:51.848Z,20.90
2023-02-28T07:38:51.881Z,14.10
2023-02-28T07:39:51.852Z,15.90
2023-02-28T07:40:51.819Z,15.00
2023-02-28T07:41:51.808Z,15.20
2023-02-28T07:42:51.810Z,14.40
2023-02-28T07:43:51.791Z,13.70
2023-02-28T07:44:51.775Z,14.60
2023-02-28T07:45:51.779Z,14.30
2023-02-28T07:46:51.864Z,15.50
2023-02-28T07:47:51.756Z,16.50
2023-02-28T07:48:51.835Z,12.90
2023-02-28T07:49:51.730Z,17.90
2023-02-28T07:50:51.718Z,13.90
2023-02-28T07:51:51.700Z,16.10
2023-02-28T07:52:51.690Z,16.60
2023-02-28T07:53:51.677Z,17.10
2023-02-28T07:54:51.668Z,15.50
2023-02-28T07:55:51.685Z,18.10
2023-02-28T07:56:51.646Z,14.80
2023-02-28T07:57:51.637Z,18.50
2023-02-28T07:58:51.634Z,19.30
2023-02-28T07:59:51.612Z,19.80
2023-02-28T08:00:51.700Z,18.70
2023-02-28T08:01:51.702Z,17.60
2023-02-28T08:02:51.587Z,13.10
2023-02-28T08:03:51.586Z,16.00
2023-02-28T08:04:51.618Z,14.90
2023-02-28T08:05:51.584Z,17.00
2023-02-28T08:06:51.538Z,21.20
2023-02-28T08:07:51.530Z,15.60
2023-02-28T08:08:51.517Z,26.10
2023-02-28T08:09:51.513Z,19.50
2023-02-28T08:10:51.522Z,15.10
2023-02-28T08:11:51.657Z,21.70
2023-02-28T08:12:51.622Z,17.20
2023-02-28T08:13:51.464Z,18.00
2023-02-28T08:14:51.449Z,18.30
2023-02-28T08:15:51.457Z,18.70
2023-02-28T08:16:51.425Z,17.20
2023-02-28T08:17:51.416Z,14.80
2023-02-28T08:18:51.407Z,17.80
2023-02-28T08:19:51.401Z,15.90
2023-02-28T08:20:51.402Z,22.10
2023-02-28T08:21:51.382Z,17.30
2023-02-28T08:22:51.377Z,19.90
2023-02-28T08:23:51.368Z,18.90
2023-02-28T08:24:51.351Z,17.00
2023-02-28T08:25:51.333Z,20.40
2023-02-28T08:26:51.313Z,21.50
2023-02-28T08:27:51.333Z,21.00
2023-02-28T08:28:51.325Z,21.00
2023-02-28T08:29:51.301Z,19.30
2023-02-28T08:30:51.296Z,17.80
2023-02-28T08:31:51.428Z,22.40
2023-02-28T08:32:51.258Z,15.40
2023-02-28T08:33:51.240Z,26.00
2023-02-28T08:34:51.233Z,19.50
2023-02-28T08:35:51.296Z,17.50
2023-02-28T08:36:51.357Z,19.40
2023-02-28T08:37:51.204Z,20.70
2023-02-28T08:38:51.206Z,19.30
2023-02-28T08:39:52.422Z,14.80
2023-02-28T08:40:51.172Z,20.60
2023-02-28T08:42:02.069Z,20.40
2023-02-28T08:42:52.170Z,26.00
2023-02-28T08:43:51.195Z,23.70
2023-02-28T08:44:51.114Z,22.70
2023-02-28T08:45:51.153Z,19.30
2023-02-28T08:46:51.130Z,17.10
2023-02-28T08:47:51.086Z,18.60
2023-02-28T08:48:51.079Z,15.60
2023-02-28T08:49:51.074Z,17.60
2023-02-28T08:51:05.990Z,15.10
2023-02-28T08:51:51.034Z,12.40
2023-02-28T08:52:51.026Z,15.00
2023-02-28T08:53:51.014Z,17.30
2023-02-28T08:54:51.004Z,12.60
2023-02-28T08:55:50.991Z,18.70
2023-02-28T08:56:50.975Z,19.70
2023-02-28T08:57:50.969Z,21.20
2023-02-28T08:58:50.960Z,15.10
2023-02-28T08:59:50.984Z,16.20
2023-02-28T09:00:50.957Z,15.80
2023-02-28T09:01:50.922Z,16.90
2023-02-28T09:02:50.912Z,13.20
2023-02-28T09:03:50.910Z,12.20
2023-02-28T09:04:50.892Z,13.50
2023-02-28T09:05:50.879Z,14.70
2023-02-28T09:06:50.871Z,16.70
2023-02-28T09:07:50.860Z,12.40
2023-02-28T09:08:50.846Z,17.90
2023-02-28T09:09:50.832Z,12.00
2023-02-28T09:10:50.823Z,16.50
2023-02-28T09:11:50.813Z,13.60
2023-02-28T09:12:50.802Z,14.20
2023-02-28T09:13:50.790Z,27.20
2023-02-28T09:14:50.778Z,16.60
2023-02-28T09:15:50.798Z,14.40
2023-02-28T09:16:50.845Z,12.60
2023-02-28T09:17:50.747Z,9.20
2023-02-28T09:18:50.733Z,11.20
2023-02-28T09:19:50.726Z,14.00
2023-02-28T09:20:50.713Z,11.90
2023-02-28T09:21:50.737Z,15.10
2023-02-28T09:22:50.692Z,9.80
2023-02-28T09:23:50.686Z,11.00
2023-02-28T09:24:50.670Z,8.90
2023-02-28T09:25:50.660Z,13.30
2023-02-28T09:26:56.734Z,8.10
2023-02-28T09:27:51.669Z,10.50
2023-02-28T09:28:50.628Z,14.10
2023-02-28T09:29:50.617Z,12.30
2023-02-28T09:30:50.711Z,10.00
2023-02-28T09:31:50.675Z,10.90
2023-02-28T09:32:51.295Z,9.60
2023-02-28T09:33:50.582Z,12.80
2023-02-28T09:34:50.565Z,9.80
2023-02-28T09:35:50.646Z,9.30
2023-02-28T09:36:51.227Z,8.50
2023-02-28T09:37:50.538Z,10.60
2023-02-28T09:38:50.541Z,9.30
2023-02-28T09:39:50.513Z,11.50
2023-02-28T09:40:50.500Z,9.80
2023-02-28T09:41:50.497Z,13.40
2023-02-28T09:42:50.514Z,10.60
2023-02-28T09:43:50.470Z,15.40
2023-02-28T09:44:50.474Z,7.50
2023-02-28T09:45:50.483Z,13.00
2023-02-28T09:46:50.434Z,7.00
2023-02-28T09:47:50.443Z,6.60
2023-02-28T09:48:50.421Z,6.10
2023-02-28T09:49:50.393Z,10.60
2023-02-28T09:50:50.381Z,7.50
2023-02-28T09:51:50.373Z,8.60
2023-02-28T09:52:50.359Z,8.30
2023-02-28T09:53:53.324Z,6.30
2023-02-28T09:54:51.363Z,5.10
2023-02-28T09:55:50.352Z,5.40
2023-02-28T09:56:50.501Z,5.50
2023-02-28T09:57:50.307Z,3.20
2023-02-28T09:58:50.301Z,6.00
2023-02-28T09:59:50.281Z,4.30
2023-02-28T10:00:50.274Z,5.00
2023-02-28T10:01:50.296Z,3.80
2023-02-28T10:02:50.252Z,4.50
2023-02-28T10:03:50.266Z,4.80
2023-02-28T10:04:50.247Z,4.10
2023-02-28T10:05:50.255Z,4.80
2023-02-28T10:06:50.211Z,5.50
2023-02-28T10:07:50.205Z,4.80
2023-02-28T10:08:50.214Z,4.10
2023-02-28T10:09:50.187Z,4.90
2023-02-28T10:10:50.178Z,4.60
2023-02-28T10:11:50.173Z,5.30
2023-02-28T10:12:50.153Z,5.30
2023-02-28T10:13:50.142Z,4.60
2023-02-28T10:14:50.126Z,4.40
2023-02-28T10:15:50.137Z,4.30
2023-02-28T10:16:50.855Z,6.70
2023-02-28T10:17:55.566Z,5.20
2023-02-28T10:18:51.109Z,8.40
2023-02-28T10:19:50.134Z,6.00
2023-02-28T10:20:50.104Z,6.90
2023-02-28T10:21:50.046Z,5.70
2023-02-28T10:22:50.058Z,6.20
2023-02-28T10:23:50.225Z,8.20
2023-02-28T10:24:50.230Z,5.50
2023-02-28T10:25:50.005Z,6.50
2023-02-28T10:26:49.998Z,4.40
2023-02-28T10:27:49.983Z,6.10
2023-02-28T10:28:49.964Z,4.60
2023-02-28T10:29:49.972Z,5.20
2023-02-28T10:30:50.008Z,4.00
2023-02-28T10:31:50.024Z,6.10
2023-02-28T10:32:50.005Z,5.60
2023-02-28T10:33:49.929Z,8.00
2023-02-28T10:34:49.904Z,4.90
2023-02-28T10:35:50.018Z,5.80
2023-02-28T10:36:49.884Z,8.60
2023-02-28T10:37:49.873Z,5.40
2023-02-28T10:38:49.888Z,5.60
2023-02-28T10:39:49.857Z,5.80
2023-02-28T10:40:49.837Z,4.90
2023-02-28T10:41:49.833Z,4.10
2023-02-28T10:42:49.838Z,7.20
2023-02-28T10:43:50.737Z,4.80
2023-02-28T10:44:49.817Z,5.40
2023-02-28T10:45:49.786Z,5.80
2023-02-28T10:46:49.938Z,6.20
2023-02-28T10:47:49.776Z,6.50
2023-02-28T10:48:49.753Z,4.80
2023-02-28T10:49:49.757Z,6.90
2023-02-28T10:50:49.733Z,5.60
2023-02-28T10:51:49.765Z,6.00
2023-02-28T10:52:49.807Z,6.60
2023-02-28T10:54:00.587Z,5.20
2023-02-28T10:54:50.845Z,6.70
2023-02-28T10:55:49.686Z,4.90
2023-02-28T10:56:49.667Z,4.00
2023-02-28T10:57:49.654Z,5.90
2023-02-28T10:58:49.649Z,8.90
2023-02-28T10:59:49.650Z,5.90
2023-02-28T11:00:49.632Z,5.20
2023-02-28T11:01:49.705Z,4.60
2023-02-28T11:02:49.613Z,4.90
2023-02-28T11:03:49.606Z,4.90
2023-02-28T11:04:49.982Z,6.10
2023-02-28T11:05:49.575Z,5.50
2023-02-28T11:06:49.577Z,6.70
2023-02-28T11:07:53.395Z,5.80
2023-02-28T11:08:49.587Z,4.60
2023-02-28T11:09:49.546Z,5.00
2023-02-28T11:10:49.521Z,6.70
2023-02-28T11:11:49.507Z,4.60
2023-02-28T11:12:52.816Z,4.80
2023-02-28T11:13:49.505Z,6.00
2023-02-28T11:14:49.464Z,6.30
2023-02-28T11:15:49.501Z,6.40
2023-02-28T11:16:49.455Z,5.70
2023-02-28T11:17:49.429Z,4.80
2023-02-28T11:18:49.463Z,6.90
2023-02-28T11:19:49.432Z,4.40
2023-02-28T11:20:49.417Z,4.50
2023-02-28T11:21:49.407Z,9.40
2023-02-28T11:22:49.414Z,4.80
2023-02-28T11:23:49.394Z,5.50
2023-02-28T11:24:49.383Z,4.80
2023-02-28T11:25:49.352Z,4.40
2023-02-28T11:26:49.347Z,4.00
2023-02-28T11:27:49.356Z,4.50
2023-02-28T11:28:49.364Z,4.70
2023-02-28T11:29:49.299Z,5.20
2023-02-28T11:30:49.346Z,5.00
2023-02-28T11:31:49.428Z,4.70
2023-02-28T11:32:49.330Z,3.20
2023-02-28T11:33:49.319Z,4.60
2023-02-28T11:34:49.247Z,4.70
2023-02-28T11:35:49.330Z,5.20
2023-02-28T11:36:49.257Z,5.10
2023-02-28T11:37:49.228Z,4.30
2023-02-28T11:38:49.220Z,6.00
2023-02-28T11:39:49.226Z,3.90
2023-02-28T11:40:49.186Z,5.40
2023-02-28T11:41:49.165Z,5.50
2023-02-28T11:42:49.182Z,5.50
2023-02-28T11:43:49.219Z,5.60
2023-02-28T11:44:49.307Z,5.50
2023-02-28T11:45:49.152Z,4.40
2023-02-28T11:46:50.914Z,4.80
2023-02-28T11:47:49.104Z,5.40
2023-02-28T11:48:49.128Z,4.40
2023-02-28T11:49:49.138Z,4.10
2023-02-28T11:50:49.074Z,4.60
2023-02-28T11:51:49.070Z,5.00
2023-02-28T11:52:49.109Z,4.70
2023-02-28T11:53:49.047Z,6.80
2023-02-28T11:54:49.055Z,4.80
2023-02-28T11:55:49.051Z,4.20
2023-02-28T11:56:49.014Z,4.70
2023-02-28T11:57:49.016Z,4.10
2023-02-28T11:58:48.999Z,4.90
2023-02-28T11:59:49.032Z,3.90
2023-02-28T12:00:49.042Z,5.40
2023-02-28T12:01:49.020Z,4.40
2023-02-28T12:02:49.082Z,4.10
2023-02-28T12:03:48.971Z,4.70
2023-02-28T12:04:48.985Z,4.80
2023-02-28T12:05:48.908Z,4.30
2023-02-28T12:06:48.982Z,6.70
2023-02-28T12:07:48.973Z,6.50
2023-02-28T12:08:49.008Z,5.10
2023-02-28T12:09:48.902Z,6.90
2023-02-28T12:10:48.885Z,4.90
2023-02-28T12:11:48.878Z,4.50
2023-02-28T12:12:48.890Z,4.60
2023-02-28T12:13:48.851Z,5.90
2023-02-28T12:14:48.892Z,5.00
2023-02-28T12:15:48.803Z,4.50
2023-02-28T12:16:48.796Z,4.90
2023-02-28T12:17:48.838Z,5.30
2023-02-28T12:18:48.791Z,4.40
2023-02-28T12:19:48.821Z,4.70
2023-02-28T12:20:48.780Z,4.00
2023-02-28T12:21:48.731Z,4.30
2023-02-28T12:22:48.828Z,5.40
2023-02-28T12:23:48.721Z,4.30
2023-02-28T12:24:48.782Z,4.50
2023-02-28T12:25:48.697Z,3.10
2023-02-28T12:26:48.688Z,4.80
2023-02-28T12:27:48.754Z,4.40
2023-02-28T12:28:48.674Z,4.20
2023-02-28T12:29:48.649Z,4.80
2023-02-28T12:30:48.635Z,5.70
2023-02-28T12:31:48.763Z,5.10
2023-02-28T12:32:48.733Z,4.70
2023-02-28T12:33:48.640Z,4.30
2023-02-28T12:34:48.677Z,5.50
2023-02-28T12:35:48.646Z,6.50
2023-02-28T12:36:48.576Z,4.20
2023-02-28T12:37:48.574Z,5.50
2023-02-28T12:38:48.574Z,4.30
2023-02-28T12:39:50.907Z,4.90
2023-02-28T12:40:48.553Z,5.90
2023-02-28T12:41:48.573Z,4.90
2023-02-28T12:42:48.503Z,3.90
2023-02-28T12:43:48.516Z,5.60
2023-02-28T12:44:48.503Z,3.90
2023-02-28T12:45:48.511Z,4.20
2023-02-28T12:46:48.565Z,4.80
2023-02-28T12:47:48.479Z,3.80
2023-02-28T12:48:48.448Z,4.40
2023-02-28T12:49:48.442Z,4.60
2023-02-28T12:50:48.434Z,5.60
2023-02-28T12:51:48.427Z,4.20
2023-02-28T12:52:48.413Z,4.20
2023-02-28T12:53:48.384Z,6.70
2023-02-28T12:54:48.370Z,4.20
2023-02-28T12:55:48.411Z,5.60
2023-02-28T12:56:48.363Z,6.40
2023-02-28T12:57:48.337Z,4.30
2023-02-28T12:58:48.354Z,3.70
2023-02-28T12:59:48.337Z,3.30
2023-02-28T13:00:48.366Z,4.40